Weather at Arizona Heart Hospital Heliport

Public forecast

Using degrees Fahrenheit for public forecast. Weather courtesy of forecast.io.

Closest aviation weather report (METAR) to Arizona Heart Hospital Heliport

Closest report is Phoenix Sky Harbor International Airport, 3.2 nm (6.0 km) SSE.

2024/07/17 19:51 (retrieved 16 minutes ago)

KPHX 171951Z 35003KT 10SM SCT180 SCT250 41/15 A2984 RMK AO2 SLP082 CB DSNT N-NE T04060150

Closest aviation forecast (TAF) to Arizona Heart Hospital Heliport

Closest forecast is Phoenix Sky Harbor International Airport, 3.2 nm (6.0 km) SSE.

2024/07/17 18:45 (retrieved 1 hour ago)

TAF KPHX 171742Z 1718/1824 28007KT P6SM FEW140 FM172200 28012G21KT P6SM FEW140 FM180300 29010KT P6SM FEW130 FEW250 TEMPO 1803/1805 35010KT FM181100 12005KT P6SM SCT150 SCT250 FM181600 26006KT P6SM FEW150 SCT250